createdAt,value
2023-05-24T00:02:15.718Z,5.43
2023-05-24T00:04:42.668Z,5.50
2023-05-24T00:07:09.450Z,5.73
2023-05-24T00:09:36.307Z,6.03
2023-05-24T00:12:03.605Z,5.37
2023-05-24T00:14:30.730Z,5.17
2023-05-24T00:16:57.525Z,5.40
2023-05-24T00:19:24.873Z,5.57
2023-05-24T00:21:52.001Z,5.47
2023-05-24T00:24:18.800Z,5.33
2023-05-24T00:26:45.814Z,5.47
2023-05-24T00:29:12.717Z,6.20
2023-05-24T00:31:39.593Z,5.77
2023-05-24T00:34:06.763Z,5.90
2023-05-24T00:36:33.933Z,5.47
2023-05-24T00:39:00.860Z,5.10
2023-05-24T00:41:27.830Z,5.43
2023-05-24T00:43:54.793Z,5.87
2023-05-24T00:46:26.914Z,6.10
2023-05-24T00:48:54.387Z,5.93
2023-05-24T00:51:21.824Z,5.50
2023-05-24T00:53:49.359Z,5.20
2023-05-24T00:56:17.597Z,5.50
2023-05-24T00:58:45.048Z,5.90
2023-05-24T01:01:12.096Z,6.53
2023-05-24T01:03:39.668Z,5.30
2023-05-24T01:06:08.066Z,5.97
2023-05-24T01:08:47.825Z,5.83
2023-05-24T01:11:27.590Z,5.97
2023-05-24T01:14:14.929Z,6.37
2023-05-24T01:16:53.501Z,5.60
2023-05-24T01:19:54.152Z,5.43
2023-05-24T01:22:46.644Z,5.43
2023-05-24T01:25:25.670Z,5.53
2023-05-24T01:27:52.897Z,5.63
2023-05-24T01:30:20.666Z,5.23
2023-05-24T01:32:48.061Z,5.10
2023-05-24T01:35:14.912Z,5.03
2023-05-24T01:37:41.694Z,5.03
2023-05-24T01:40:10.211Z,4.73
2023-05-24T01:43:13.490Z,5.07
2023-05-24T01:45:50.669Z,5.37
2023-05-24T01:48:34.611Z,4.80
2023-05-24T01:51:05.712Z,5.07
2023-05-24T01:53:42.611Z,5.33
2023-05-24T01:56:11.747Z,4.83
2023-05-24T01:58:41.560Z,5.00
2023-05-24T02:01:09.119Z,4.57
2023-05-24T02:03:38.287Z,5.30
2023-05-24T02:06:05.476Z,4.80
2023-05-24T02:08:32.430Z,4.83
2023-05-24T02:10:59.169Z,5.27
2023-05-24T02:13:25.980Z,4.63
2023-05-24T02:15:53.763Z,4.77
2023-05-24T02:18:20.698Z,5.00
2023-05-24T02:20:47.411Z,5.10
2023-05-24T02:23:14.578Z,4.30
2023-05-24T02:25:41.285Z,4.80
2023-05-24T02:28:07.963Z,4.57
2023-05-24T02:30:34.762Z,4.43
2023-05-24T02:33:02.119Z,5.20
2023-05-24T02:35:28.961Z,4.17
2023-05-24T02:37:58.646Z,5.10
2023-05-24T02:40:26.212Z,4.87
2023-05-24T02:42:52.910Z,5.03
2023-05-24T02:45:19.665Z,4.70
2023-05-24T02:47:46.879Z,5.07
2023-05-24T02:50:13.649Z,5.10
2023-05-24T02:52:40.438Z,3.97
2023-05-24T02:55:08.483Z,4.43
2023-05-24T02:57:35.332Z,4.33
2023-05-24T03:00:02.257Z,4.70
2023-05-24T03:02:29.278Z,4.43
2023-05-24T03:04:58.092Z,4.43
2023-05-24T03:07:24.785Z,4.57
2023-05-24T03:09:51.504Z,4.63
2023-05-24T03:12:18.273Z,4.13
2023-05-24T03:14:44.961Z,4.23
2023-05-24T03:17:11.761Z,4.80
2023-05-24T03:19:38.504Z,4.20
2023-05-24T03:22:05.351Z,3.87
2023-05-24T03:24:33.531Z,4.23
2023-05-24T03:27:01.082Z,4.37
2023-05-24T03:29:27.836Z,4.17
2023-05-24T03:31:54.612Z,4.60
2023-05-24T03:34:21.314Z,4.30
2023-05-24T03:36:48.143Z,4.93
2023-05-24T03:39:14.850Z,4.30
2023-05-24T03:41:41.621Z,4.50
2023-05-24T03:44:08.369Z,4.23
2023-05-24T03:46:35.120Z,4.20
2023-05-24T03:49:01.860Z,4.17
2023-05-24T03:51:29.818Z,4.20
2023-05-24T03:53:57.498Z,3.67
2023-05-24T03:56:24.647Z,3.77
2023-05-24T03:58:52.334Z,4.67
2023-05-24T04:01:32.659Z,4.50
2023-05-24T04:04:01.499Z,4.70
2023-05-24T04:06:29.419Z,4.10
2023-05-24T04:08:57.156Z,3.87
2023-05-24T04:11:24.350Z,3.70
2023-05-24T04:13:51.556Z,4.23
2023-05-24T04:16:18.306Z,3.77
2023-05-24T04:18:45.608Z,4.20
2023-05-24T04:21:12.477Z,3.70
2023-05-24T04:23:39.213Z,3.77
2023-05-24T04:26:06.096Z,3.73
2023-05-24T04:28:33.305Z,4.40
2023-05-24T04:31:00.259Z,3.83
2023-05-24T04:33:27.752Z,3.80
2023-05-24T04:35:54.561Z,3.83
2023-05-24T04:38:22.510Z,4.60
2023-05-24T04:40:49.212Z,4.63
2023-05-24T04:43:15.980Z,4.30
2023-05-24T04:45:42.674Z,4.20
2023-05-24T04:48:09.761Z,3.93
2023-05-24T04:50:37.678Z,4.00
2023-05-24T04:53:04.737Z,4.10
2023-05-24T04:55:32.596Z,3.67
2023-05-24T04:57:59.620Z,3.97
2023-05-24T05:00:26.336Z,4.20
2023-05-24T05:02:53.238Z,3.73
2023-05-24T05:05:21.270Z,4.03
2023-05-24T05:07:48.099Z,4.17
2023-05-24T05:10:14.877Z,4.20
2023-05-24T05:12:57.070Z,3.37
2023-05-24T05:15:24.446Z,3.37
2023-05-24T05:17:51.329Z,3.90
2023-05-24T05:20:19.377Z,3.60
2023-05-24T05:22:47.290Z,4.00
2023-05-24T05:25:14.045Z,3.13
2023-05-24T05:27:40.905Z,3.90
2023-05-24T05:30:08.549Z,4.07
2023-05-24T05:32:36.320Z,3.37
2023-05-24T05:35:03.556Z,4.10
2023-05-24T05:37:31.206Z,3.30
2023-05-24T05:39:58.115Z,3.33
2023-05-24T05:42:25.030Z,3.20
2023-05-24T05:44:52.812Z,3.80
2023-05-24T05:47:19.674Z,3.73
2023-05-24T05:49:46.430Z,2.90
2023-05-24T05:52:13.263Z,3.00
2023-05-24T05:54:40.060Z,3.23
2023-05-24T05:57:10.416Z,3.60
2023-05-24T05:59:38.280Z,3.37
2023-05-24T06:02:06.728Z,3.00
2023-05-24T06:04:34.108Z,3.20
2023-05-24T06:07:00.994Z,3.73
2023-05-24T06:09:27.747Z,3.70
2023-05-24T06:11:54.677Z,3.50
2023-05-24T06:14:22.511Z,3.60
2023-05-24T06:16:49.594Z,3.70
2023-05-24T06:19:16.949Z,3.17
2023-05-24T06:21:48.488Z,3.47
2023-05-24T06:24:20.294Z,3.17
2023-05-24T06:26:48.192Z,2.97
2023-05-24T06:29:15.011Z,3.70
2023-05-24T06:31:42.453Z,3.47
2023-05-24T06:34:09.300Z,3.10
2023-05-24T06:36:41.300Z,3.53
2023-05-24T06:39:11.410Z,4.00
2023-05-24T06:41:39.093Z,3.43
2023-05-24T06:44:06.228Z,3.17
2023-05-24T06:46:33.332Z,3.20
2023-05-24T06:49:00.349Z,3.10
2023-05-24T06:51:27.223Z,3.33
2023-05-24T06:53:54.004Z,2.93
2023-05-24T06:56:21.491Z,3.07
2023-05-24T06:58:48.373Z,2.70
2023-05-24T07:01:15.430Z,3.20
2023-05-24T07:03:42.682Z,2.70
2023-05-24T07:06:12.238Z,3.23
2023-05-24T07:08:38.956Z,2.88
2023-05-24T07:11:06.268Z,2.90
2023-05-24T07:13:33.120Z,2.58
2023-05-24T07:15:59.941Z,2.40
2023-05-24T07:18:26.640Z,2.90
2023-05-24T07:20:54.975Z,2.83
2023-05-24T07:23:21.765Z,2.90
2023-05-24T07:25:49.457Z,3.20
2023-05-24T07:28:19.705Z,3.25
2023-05-24T07:30:46.697Z,3.05
2023-05-24T07:33:13.798Z,2.60
2023-05-24T07:35:40.697Z,2.50
2023-05-24T07:38:07.753Z,2.40
2023-05-24T07:40:34.952Z,2.80
2023-05-24T07:43:03.828Z,2.90
2023-05-24T07:45:31.361Z,2.70
2023-05-24T07:47:58.138Z,2.22
2023-05-24T07:50:25.244Z,2.55
2023-05-24T07:52:52.069Z,3.05
2023-05-24T07:55:18.816Z,2.30
2023-05-24T07:57:45.548Z,2.33
2023-05-24T08:00:14.822Z,2.40
2023-05-24T08:02:44.147Z,3.00
2023-05-24T08:05:14.231Z,2.72
2023-05-24T08:07:42.207Z,2.70
2023-05-24T08:10:14.685Z,2.63
2023-05-24T08:12:42.398Z,2.90
2023-05-24T08:15:09.665Z,3.00
2023-05-24T08:17:36.895Z,2.47
2023-05-24T08:20:08.931Z,3.03
2023-05-24T08:22:37.374Z,2.90
2023-05-24T08:25:04.430Z,2.77
2023-05-24T08:27:31.223Z,3.30
2023-05-24T08:29:58.004Z,2.80
2023-05-24T08:32:24.923Z,2.47
2023-05-24T08:34:57.760Z,2.47
2023-05-24T08:37:28.429Z,2.70
2023-05-24T08:39:56.101Z,2.77
2023-05-24T08:42:25.085Z,2.30
2023-05-24T08:44:54.355Z,2.50
2023-05-24T08:47:21.924Z,2.90
2023-05-24T08:49:49.244Z,2.95
2023-05-24T08:52:16.837Z,3.05
2023-05-24T08:54:44.366Z,2.72
2023-05-24T08:57:12.128Z,2.80
2023-05-24T08:59:42.561Z,2.80
2023-05-24T09:02:13.684Z,2.47
2023-05-24T09:04:44.223Z,2.92
2023-05-24T09:07:13.777Z,2.50
2023-05-24T09:09:46.020Z,3.15
2023-05-24T09:12:24.968Z,2.45
2023-05-24T09:15:00.496Z,2.90
2023-05-24T09:17:27.400Z,2.45
2023-05-24T09:19:54.193Z,2.42
2023-05-24T09:22:25.918Z,2.78
2023-05-24T09:24:53.709Z,2.70
2023-05-24T09:27:23.580Z,2.80
2023-05-24T09:29:51.927Z,2.40
2023-05-24T09:32:22.038Z,2.33
2023-05-24T09:34:48.909Z,2.45
2023-05-24T09:37:24.167Z,2.72
2023-05-24T09:39:54.416Z,2.38
2023-05-24T09:42:27.222Z,2.55
2023-05-24T09:45:09.417Z,2.58
2023-05-24T09:47:45.146Z,2.70
2023-05-24T09:50:15.086Z,2.50
2023-05-24T09:52:42.626Z,2.72
2023-05-24T09:55:17.682Z,2.70
2023-05-24T09:57:49.897Z,2.30
2023-05-24T10:00:22.653Z,3.03
2023-05-24T10:03:03.014Z,2.90
2023-05-24T10:05:31.195Z,2.50
2023-05-24T10:07:58.861Z,2.88
2023-05-24T10:10:29.610Z,2.47
2023-05-24T10:12:57.530Z,2.88
2023-05-24T10:15:25.250Z,2.75
2023-05-24T10:17:52.817Z,2.65
2023-05-24T10:20:19.882Z,3.08
2023-05-24T10:22:50.444Z,2.58
2023-05-24T10:25:28.527Z,3.03
2023-05-24T10:28:04.684Z,2.50
2023-05-24T10:30:41.511Z,2.80
2023-05-24T10:33:09.528Z,2.75
2023-05-24T10:35:38.242Z,2.90
2023-05-24T10:38:08.563Z,2.70
2023-05-24T10:40:35.721Z,3.20
2023-05-24T10:43:06.647Z,2.72
2023-05-24T10:45:38.853Z,2.92
2023-05-24T10:48:15.548Z,2.80
2023-05-24T10:50:43.215Z,2.92
2023-05-24T10:53:26.332Z,2.55
2023-05-24T10:56:01.129Z,2.45
2023-05-24T10:59:06.288Z,2.78
2023-05-24T11:01:33.962Z,2.63
2023-05-24T11:04:12.710Z,2.53
2023-05-24T11:06:45.953Z,2.80
2023-05-24T11:09:12.733Z,2.50
2023-05-24T11:11:39.472Z,2.65
2023-05-24T11:14:06.459Z,2.47
2023-05-24T11:16:40.466Z,2.60
2023-05-24T11:19:25.125Z,2.35
2023-05-24T11:21:58.755Z,2.58
2023-05-24T11:24:27.057Z,2.80
2023-05-24T11:26:54.122Z,2.20
2023-05-24T11:29:22.555Z,3.17
2023-05-24T11:31:58.270Z,2.88
2023-05-24T11:34:27.499Z,3.13
2023-05-24T11:36:55.383Z,3.08
2023-05-24T11:39:23.704Z,2.90
2023-05-24T11:41:50.763Z,2.78
2023-05-24T11:44:21.765Z,2.83
2023-05-24T11:46:48.591Z,3.22
2023-05-24T11:49:16.473Z,2.95
2023-05-24T11:51:43.806Z,2.75
2023-05-24T11:54:11.795Z,3.40
2023-05-24T11:56:38.842Z,3.30
2023-05-24T11:59:16.061Z,2.80
2023-05-24T12:01:43.307Z,3.00
2023-05-24T12:04:10.560Z,2.28
2023-05-24T12:06:40.285Z,2.30
2023-05-24T12:09:09.005Z,3.08
2023-05-24T12:11:40.023Z,3.05
2023-05-24T12:14:17.164Z,2.70
2023-05-24T12:16:45.474Z,2.83
2023-05-24T12:21:59.105Z,3.28
2023-05-24T12:24:27.464Z,3.00
2023-05-24T12:27:01.190Z,2.83
2023-05-24T12:29:32.410Z,3.25
2023-05-24T12:31:59.857Z,3.20
2023-05-24T12:34:26.791Z,3.08
2023-05-24T12:36:55.541Z,2.85
2023-05-24T12:39:23.594Z,3.30
2023-05-24T12:41:54.718Z,3.05
2023-05-24T12:44:26.273Z,3.03
2023-05-24T12:46:57.194Z,3.35
2023-05-24T12:49:27.239Z,3.13
2023-05-24T12:51:55.185Z,3.58
2023-05-24T12:54:29.038Z,2.78
2023-05-24T12:56:57.494Z,3.15
2023-05-24T12:59:25.595Z,2.58
2023-05-24T13:01:52.821Z,3.58
2023-05-24T13:04:21.597Z,3.20
2023-05-24T13:06:49.336Z,3.70
2023-05-24T13:09:20.795Z,3.90
2023-05-24T13:11:47.539Z,3.67
2023-05-24T13:14:16.522Z,2.95
2023-05-24T13:16:44.173Z,3.25
2023-05-24T13:19:11.808Z,3.30
2023-05-24T13:21:39.103Z,2.88
2023-05-24T13:24:06.847Z,3.67
2023-05-24T13:26:38.128Z,3.30
2023-05-24T13:31:40.713Z,3.05
2023-05-24T13:34:08.970Z,3.35
2023-05-24T13:36:36.127Z,3.15
2023-05-24T13:39:14.883Z,3.08
2023-05-24T13:41:43.056Z,3.63
2023-05-24T13:44:10.613Z,3.00
2023-05-24T13:46:37.817Z,2.83
2023-05-24T13:49:05.283Z,2.90
2023-05-24T13:51:32.978Z,3.53
2023-05-24T13:53:59.875Z,3.38
2023-05-24T13:56:32.571Z,3.97
2023-05-24T13:59:03.638Z,3.30
2023-05-24T14:01:31.181Z,3.83
2023-05-24T14:03:58.159Z,3.83
2023-05-24T14:06:24.980Z,3.38
2023-05-24T14:08:52.264Z,3.08
2023-05-24T14:11:19.709Z,3.13
2023-05-24T14:16:16.569Z,2.88
2023-05-24T14:18:43.592Z,3.15
2023-05-24T14:21:10.498Z,3.22
2023-05-24T14:23:37.325Z,3.15
2023-05-24T14:26:04.103Z,3.38
2023-05-24T14:28:30.934Z,3.22
2023-05-24T14:30:57.667Z,3.25
2023-05-24T14:33:24.529Z,3.30
2023-05-24T14:35:51.667Z,3.53
2023-05-24T14:38:18.773Z,3.30
2023-05-24T14:40:48.102Z,2.80
2023-05-24T14:43:15.298Z,2.85
2023-05-24T14:45:42.924Z,3.20
2023-05-24T14:48:11.524Z,2.50
2023-05-24T14:50:39.978Z,3.55
2023-05-24T14:53:12.035Z,2.80
2023-05-24T14:55:41.146Z,3.05
2023-05-24T14:58:12.296Z,3.05
2023-05-24T15:00:40.282Z,2.78
2023-05-24T15:03:08.110Z,2.80
2023-05-24T15:05:36.130Z,2.70
2023-05-24T15:08:03.270Z,3.03
2023-05-24T15:10:30.174Z,3.30
2023-05-24T15:12:57.033Z,2.83
2023-05-24T15:15:23.830Z,3.10
2023-05-24T15:17:50.608Z,3.20
2023-05-24T15:20:17.485Z,2.60
2023-05-24T15:22:44.290Z,2.70
2023-05-24T15:25:11.404Z,2.90
2023-05-24T15:27:38.744Z,2.50
2023-05-24T15:30:06.359Z,3.20
2023-05-24T15:32:33.103Z,2.88
2023-05-24T15:35:02.720Z,2.55
2023-05-24T15:37:29.545Z,3.10
2023-05-24T15:39:56.383Z,3.13
2023-05-24T15:42:25.192Z,3.08
2023-05-24T15:44:51.932Z,2.78
2023-05-24T15:47:21.233Z,2.90
2023-05-24T15:49:49.808Z,3.10
2023-05-24T15:52:16.834Z,3.13
2023-05-24T15:54:43.635Z,2.63
2023-05-24T15:57:10.858Z,2.80
2023-05-24T15:59:38.675Z,2.63
2023-05-24T16:02:09.074Z,3.13
2023-05-24T16:04:35.952Z,2.67
2023-05-24T16:07:03.132Z,3.10
2023-05-24T16:09:29.858Z,2.90
2023-05-24T16:11:56.616Z,2.83
2023-05-24T16:14:23.371Z,2.83
2023-05-24T16:16:50.294Z,2.95
2023-05-24T16:19:17.088Z,2.95
2023-05-24T16:21:43.925Z,2.97
2023-05-24T16:24:10.819Z,2.58
2023-05-24T16:26:37.788Z,2.42
2023-05-24T16:29:06.513Z,2.65
2023-05-24T16:31:33.268Z,3.38
2023-05-24T16:34:00.914Z,2.75
2023-05-24T16:36:27.729Z,3.08
2023-05-24T16:38:54.469Z,2.67
2023-05-24T16:41:21.277Z,2.70
2023-05-24T16:43:48.135Z,2.72
2023-05-24T16:46:15.001Z,2.83
2023-05-24T16:48:43.049Z,2.58
2023-05-24T16:51:09.916Z,2.60
2023-05-24T16:53:36.817Z,3.30
2023-05-24T16:56:03.546Z,2.53
2023-05-24T16:58:31.218Z,2.67
2023-05-24T17:00:58.682Z,2.70
2023-05-24T17:03:28.940Z,2.60
2023-05-24T17:06:01.914Z,2.80
2023-05-24T17:08:34.233Z,2.42
2023-05-24T17:11:01.284Z,3.00
2023-05-24T17:13:28.137Z,2.83
2023-05-24T17:15:55.550Z,2.42
2023-05-24T17:18:29.824Z,2.83
2023-05-24T17:21:06.820Z,2.63
2023-05-24T17:23:36.650Z,2.28
2023-05-24T17:26:04.425Z,2.78
2023-05-24T17:28:31.455Z,2.70
2023-05-24T17:31:00.212Z,2.40
2023-05-24T17:33:29.100Z,2.53
2023-05-24T17:35:56.863Z,3.15
2023-05-24T17:38:25.004Z,2.78
2023-05-24T17:40:58.952Z,2.47
2023-05-24T17:43:31.648Z,2.90
2023-05-24T17:46:08.737Z,2.78
2023-05-24T17:48:37.012Z,3.00
2023-05-24T17:51:06.448Z,2.78
2023-05-24T17:53:34.938Z,2.75
2023-05-24T17:56:02.641Z,2.63
2023-05-24T17:58:35.669Z,2.65
2023-05-24T18:01:06.996Z,2.45
2023-05-24T18:03:36.958Z,2.83
2023-05-24T18:06:06.330Z,2.60
2023-05-24T18:08:34.578Z,2.83
2023-05-24T18:11:07.874Z,2.70
2023-05-24T18:13:35.631Z,2.50
2023-05-24T18:16:03.063Z,2.90
2023-05-24T18:18:30.616Z,2.30
2023-05-24T18:20:57.842Z,2.67
2023-05-24T18:23:25.275Z,2.95
2023-05-24T18:26:00.372Z,3.25
2023-05-24T18:28:29.003Z,2.90
2023-05-24T18:30:56.427Z,2.80
2023-05-24T18:33:23.693Z,2.90
2023-05-24T18:35:51.289Z,2.40
2023-05-24T18:38:18.449Z,2.67
2023-05-24T18:40:45.767Z,2.37
2023-05-24T18:43:16.075Z,2.97
2023-05-24T18:45:43.557Z,3.17
2023-05-24T18:48:10.918Z,2.95
2023-05-24T18:50:38.136Z,2.90
2023-05-24T18:53:05.600Z,2.60
2023-05-24T18:55:32.749Z,3.47
2023-05-24T18:57:59.958Z,2.93
2023-05-24T19:00:27.140Z,2.40
2023-05-24T19:02:55.481Z,3.17
2023-05-24T19:05:22.693Z,3.07
2023-05-24T19:07:50.340Z,3.23
2023-05-24T19:10:17.766Z,2.97
2023-05-24T19:12:44.495Z,2.67
2023-05-24T19:15:11.908Z,3.10
2023-05-24T19:17:38.634Z,2.63
2023-05-24T19:20:07.041Z,3.20
2023-05-24T19:22:33.840Z,2.97
2023-05-24T19:25:00.959Z,3.40
2023-05-24T19:27:28.388Z,2.63
2023-05-24T19:29:55.170Z,2.97
2023-05-24T19:32:22.451Z,3.03
2023-05-24T19:34:49.354Z,3.00
2023-05-24T19:37:16.099Z,3.27
2023-05-24T19:39:42.916Z,2.73
2023-05-24T19:42:10.781Z,3.27
2023-05-24T19:44:38.006Z,3.10
2023-05-24T19:47:05.298Z,2.77
2023-05-24T19:49:32.160Z,3.13
2023-05-24T19:51:59.335Z,3.00
2023-05-24T19:54:26.746Z,3.10
2023-05-24T19:56:55.851Z,3.13
2023-05-24T19:59:22.781Z,2.83
2023-05-24T20:01:49.511Z,3.43
2023-05-24T20:04:16.330Z,2.90
2023-05-24T20:06:43.072Z,3.20
2023-05-24T20:09:09.892Z,3.30
2023-05-24T20:11:36.621Z,2.90
2023-05-24T20:14:03.426Z,4.07
2023-05-24T20:16:31.024Z,3.00
2023-05-24T20:18:57.922Z,3.20
2023-05-24T20:21:24.714Z,3.97
2023-05-24T20:23:57.714Z,2.70
2023-05-24T20:26:25.937Z,3.60
2023-05-24T20:28:52.700Z,3.20
2023-05-24T20:31:19.578Z,3.07
2023-05-24T20:33:46.395Z,3.67
2023-05-24T20:36:15.056Z,3.33
2023-05-24T20:38:41.928Z,2.87
2023-05-24T20:41:08.826Z,3.67
2023-05-24T20:43:35.588Z,3.70
2023-05-24T20:46:02.447Z,3.07
2023-05-24T20:48:29.156Z,3.83
2023-05-24T20:50:55.957Z,4.10
2023-05-24T20:53:22.770Z,4.30
2023-05-24T20:55:49.779Z,4.40
2023-05-24T20:58:17.746Z,3.80
2023-05-24T21:00:44.578Z,4.60
2023-05-24T21:03:11.485Z,5.10
2023-05-24T21:05:40.128Z,4.40
2023-05-24T21:08:07.083Z,4.97
2023-05-24T21:10:33.968Z,4.43
2023-05-24T21:13:00.735Z,5.13
2023-05-24T21:15:27.478Z,4.50
2023-05-24T21:17:54.229Z,4.93
2023-05-24T21:20:21.221Z,4.73
2023-05-24T21:22:48.111Z,4.70
2023-05-24T21:25:15.206Z,5.07
2023-05-24T21:27:41.911Z,4.67
2023-05-24T21:30:09.088Z,4.60
2023-05-24T21:32:35.834Z,4.57
2023-05-24T21:35:02.562Z,4.07
2023-05-24T21:37:29.257Z,4.10
2023-05-24T21:39:56.074Z,3.70
2023-05-24T21:42:22.882Z,4.10
2023-05-24T21:44:49.586Z,4.43
2023-05-24T21:47:16.374Z,4.27
2023-05-24T21:49:43.163Z,4.03
2023-05-24T21:52:09.944Z,4.03
2023-05-24T21:54:36.672Z,4.37
2023-05-24T21:57:03.769Z,3.97
2023-05-24T21:59:30.478Z,4.60
2023-05-24T22:01:57.272Z,4.57
2023-05-24T22:04:39.299Z,4.03
2023-05-24T22:07:06.514Z,4.20
2023-05-24T22:09:33.217Z,4.90
2023-05-24T22:12:00.806Z,4.00
2023-05-24T22:14:27.955Z,4.13
2023-05-24T22:16:54.862Z,4.60
2023-05-24T22:19:38.364Z,4.73
2023-05-24T22:22:06.104Z,5.20
2023-05-24T22:24:33.103Z,4.90
2023-05-24T22:27:01.084Z,4.20
2023-05-24T22:29:28.274Z,4.47
2023-05-24T22:31:55.274Z,4.87
2023-05-24T22:34:28.923Z,4.67
2023-05-24T22:36:57.513Z,5.10
2023-05-24T22:39:24.572Z,5.03
2023-05-24T22:41:52.644Z,4.80
2023-05-24T22:44:19.857Z,4.47
2023-05-24T22:46:50.079Z,5.23
2023-05-24T22:49:19.796Z,4.57
2023-05-24T22:51:48.328Z,4.90
2023-05-24T22:54:15.865Z,4.77
2023-05-24T22:56:43.760Z,4.17
2023-05-24T22:59:11.219Z,4.30
2023-05-24T23:01:38.127Z,4.20
2023-05-24T23:04:19.847Z,4.20
2023-05-24T23:06:49.430Z,4.57
2023-05-24T23:09:17.643Z,4.30
2023-05-24T23:11:44.506Z,4.23
2023-05-24T23:14:11.457Z,4.73
2023-05-24T23:16:45.536Z,4.37
2023-05-24T23:19:18.473Z,4.50
2023-05-24T23:21:46.108Z,4.80
2023-05-24T23:24:15.785Z,4.00
2023-05-24T23:26:43.133Z,4.50
2023-05-24T23:29:10.549Z,3.73
2023-05-24T23:31:37.957Z,4.13
2023-05-24T23:34:05.759Z,4.17
2023-05-24T23:36:33.172Z,3.93
2023-05-24T23:39:00.465Z,4.10
2023-05-24T23:41:27.849Z,3.90
2023-05-24T23:43:55.106Z,4.30
2023-05-24T23:46:22.286Z,4.93
2023-05-24T23:48:49.523Z,4.50
2023-05-24T23:51:16.766Z,4.13
2023-05-24T23:53:43.940Z,4.60
2023-05-24T23:56:11.276Z,4.60
2023-05-24T23:58:38.449Z,4.40
